Time;durP1;ratioP1;P1;durP2;ratioP2;P2;SDS_P1;SDS_P2;PMS_P1;PMS_P2;Temp;Humidity;BMP_temperature;BMP_pressure;BME280_temperature;BME280_humidity;BME280_pressure;Samples;Min_cycle;Max_cycle;Signal;HPM_P1;HPM_P2
2022/11/29 00:00:18;;;;;;;;;;;;;;;10.70;nan;101842.94;5077071;28;19920;-32
2022/11/29 00:02:44;;;;;;;;;;;;;;;10.70;nan;101842.94;5072905;28;20275;-32
2022/11/29 00:05:09;;;;;;;;;;;;;;;10.69;nan;101852.84;5077850;28;19932;-32
2022/11/29 00:07:35;;;;;;;;;;;;;;;10.66;nan;101852.47;5074328;28;20011;-32
2022/11/29 00:10:01;;;;;;;;;;;;;;;10.66;nan;101849.78;5076346;28;20437;-33
2022/11/29 00:12:26;;;;;;;;;;;;;;;10.68;nan;101853.06;5077760;28;19916;-33
2022/11/29 00:14:52;;;;;;;;;;;;;;;10.68;nan;101839.66;5076742;28;20344;-32
2022/11/29 00:17:17;;;;;;;;;;;;;;;10.72;nan;101856.94;5075959;28;19951;-33
2022/11/29 00:19:44;;;;;;;;;;;;;;;10.69;nan;101854.72;5080162;28;19916;-32
2022/11/29 00:22:09;;;;;;;;;;;;;;;10.69;nan;101857.38;5077904;28;19928;-32
2022/11/29 00:24:35;;;;;;;;;;;;;;;10.69;nan;101858.22;5075162;28;19939;-32
2022/11/29 00:27:00;;;;;;;;;;;;;;;10.58;nan;101861.59;5080467;28;19988;-33
2022/11/29 00:29:26;;;;;;;;;;;;;;;10.58;nan;101864.28;5077035;28;20049;-32
2022/11/29 00:31:51;;;;;;;;;;;;;;;10.55;nan;101860.19;5075536;28;20398;-33
2022/11/29 00:34:17;;;;;;;;;;;;;;;10.59;nan;101860.56;5074519;28;19924;-32
2022/11/29 00:36:42;;;;;;;;;;;;;;;10.62;nan;101862.00;5079160;28;20391;-33
2022/11/29 00:39:10;;;;;;;;;;;;;;;10.59;nan;101853.38;5080168;28;19920;-32
2022/11/29 00:41:36;;;;;;;;;;;;;;;10.57;nan;101852.75;5072409;28;19963;-32
2022/11/29 00:44:01;;;;;;;;;;;;;;;10.62;nan;101845.94;5076046;28;19917;-33
2022/11/29 00:46:26;;;;;;;;;;;;;;;10.63;nan;101853.75;5075757;28;19920;-33
2022/11/29 00:48:52;;;;;;;;;;;;;;;10.64;nan;101849.19;5076782;28;20002;-32
2022/11/29 00:51:17;;;;;;;;;;;;;;;10.64;nan;101843.84;5076597;28;19928;-33
2022/11/29 00:53:42;;;;;;;;;;;;;;;10.64;nan;101843.84;5081909;28;19924;-32
2022/11/29 00:56:08;;;;;;;;;;;;;;;10.68;nan;101845.03;5064422;28;20096;-32
2022/11/29 00:58:34;;;;;;;;;;;;;;;10.69;nan;101836.75;5075099;28;19916;-33
2022/11/29 01:01:00;;;;;;;;;;;;;;;10.75;nan;101848.44;5076969;28;19973;-33
2022/11/29 01:03:25;;;;;;;;;;;;;;;10.72;nan;101841.69;5073132;28;19920;-32
2022/11/29 01:05:50;;;;;;;;;;;;;;;10.69;nan;101838.63;5077722;28;19924;-33
2022/11/29 01:08:16;;;;;;;;;;;;;;;10.68;nan;101839.66;5076800;28;20034;-32
2022/11/29 01:10:42;;;;;;;;;;;;;;;10.70;nan;101843.75;5077807;28;20421;-32
2022/11/29 01:13:07;;;;;;;;;;;;;;;10.75;nan;101841.22;5076445;28;20014;-33
2022/11/29 01:15:33;;;;;;;;;;;;;;;10.80;nan;101845.94;5074064;28;20461;-32
2022/11/29 01:17:58;;;;;;;;;;;;;;;10.82;nan;101841.19;5075527;28;19924;-33
2022/11/29 01:20:24;;;;;;;;;;;;;;;10.79;nan;101845.13;5076779;28;19924;-31
2022/11/29 01:22:49;;;;;;;;;;;;;;;10.80;nan;101849.44;5076101;28;19924;-32
2022/11/29 01:25:15;;;;;;;;;;;;;;;10.81;nan;101847.59;5074372;28;19916;-32
2022/11/29 01:27:40;;;;;;;;;;;;;;;10.78;nan;101850.72;5073969;28;20399;-32
2022/11/29 01:30:07;;;;;;;;;;;;;;;10.80;nan;101845.94;5073421;28;19935;-32
2022/11/29 01:32:32;;;;;;;;;;;;;;;10.79;nan;101847.00;5074630;28;19963;-32
2022/11/29 01:34:58;;;;;;;;;;;;;;;10.75;nan;101851.94;5073105;28;19964;-32
2022/11/29 01:37:23;;;;;;;;;;;;;;;10.76;nan;101850.91;5073098;28;19927;-32
2022/11/29 01:39:48;;;;;;;;;;;;;;;10.79;nan;101850.50;5071571;28;20085;-32
2022/11/29 01:42:14;;;;;;;;;;;;;;;10.81;nan;101844.91;5074268;28;19924;-32
2022/11/29 01:44:45;;;;;;;;;;;;;;;10.80;nan;101846.75;5075999;28;19924;-32
2022/11/29 01:47:11;;;;;;;;;;;;;;;10.76;nan;101848.22;5076921;28;19998;-33
2022/11/29 01:49:38;;;;;;;;;;;;;;;10.77;nan;101849.03;5073193;28;20023;-32
2022/11/29 01:52:15;;;;;;;;;;;;;;;10.77;nan;101847.22;5074434;28;20407;-32
2022/11/29 01:54:42;;;;;;;;;;;;;;;10.77;nan;101852.56;5076791;28;19924;-32
2022/11/29 01:57:08;;;;;;;;;;;;;;;10.81;nan;101852.94;5075734;28;19956;-32
2022/11/29 01:59:35;;;;;;;;;;;;;;;10.77;nan;101849.03;5076318;28;19970;-32
2022/11/29 02:02:08;;;;;;;;;;;;;;;10.78;nan;101851.53;5075632;28;19931;-32
2022/11/29 02:04:34;;;;;;;;;;;;;;;10.81;nan;101853.75;5072396;28;19977;-31
2022/11/29 02:07:00;;;;;;;;;;;;;;;10.82;nan;101851.91;5078562;28;19955;-32
2022/11/29 02:09:25;;;;;;;;;;;;;;;10.83;nan;101848.19;5071121;28;19966;-32
2022/11/29 02:12:13;;;;;;;;;;;;;;;10.79;nan;101847.00;5073517;28;19939;-33
2022/11/29 02:14:42;;;;;;;;;;;;;;;10.68;nan;101842.34;5029197;28;20323;-31
2022/11/29 02:17:26;;;;;;;;;;;;;;;10.70;nan;101842.94;5076503;28;19925;-31
2022/11/29 02:19:51;;;;;;;;;;;;;;;10.69;nan;101843.97;5075365;28;20443;-31
2022/11/29 02:22:24;;;;;;;;;;;;;;;10.65;nan;101848.16;5076049;28;20006;-31
2022/11/29 02:24:58;;;;;;;;;;;;;;;10.67;nan;101843.41;5071242;28;19955;-31
2022/11/29 02:27:23;;;;;;;;;;;;;;;10.67;nan;101848.75;5075048;28;20068;-31
2022/11/29 02:30:07;;;;;;;;;;;;;;;10.58;nan;101840.97;5076216;28;19927;-31
2022/11/29 02:32:50;;;;;;;;;;;;;;;10.61;nan;101838.94;5073218;28;19916;-31
2022/11/29 02:35:51;;;;;;;;;;;;;;;10.66;nan;101847.13;5075022;28;20362;-32
2022/11/29 02:38:28;;;;;;;;;;;;;;;10.68;nan;101842.34;4978289;28;20019;-31
2022/11/29 02:40:54;;;;;;;;;;;;;;;10.69;nan;101838.63;5061949;28;20010;-31
2022/11/29 02:43:29;;;;;;;;;;;;;;;10.64;nan;101854.56;5075860;28;20966;-31
2022/11/29 02:45:55;;;;;;;;;;;;;;;10.62;nan;101849.44;5075705;28;19923;-31
2022/11/29 02:48:39;;;;;;;;;;;;;;;10.65;nan;101851.66;5072531;28;20351;-31
2022/11/29 02:51:08;;;;;;;;;;;;;;;10.63;nan;101852.94;5075410;28;19924;-31
2022/11/29 02:53:33;;;;;;;;;;;;;;;10.62;nan;101846.75;5074163;28;19927;-31
2022/11/29 02:56:19;;;;;;;;;;;;;;;10.55;nan;101852.16;5075118;28;19920;-32
2022/11/29 02:58:57;;;;;;;;;;;;;;;10.51;nan;101848.28;5072424;28;19920;-31
2022/11/29 03:01:43;;;;;;;;;;;;;;;10.52;nan;101847.22;5076369;28;19966;-31
2022/11/29 03:04:09;;;;;;;;;;;;;;;10.51;nan;101853.63;5071948;28;19924;-32
2022/11/29 03:06:37;;;;;;;;;;;;;;;10.54;nan;101850.50;5074827;28;19916;-31
2022/11/29 03:09:25;;;;;;;;;;;;;;;10.55;nan;101852.16;5072064;28;19916;-31
2022/11/29 03:11:57;;;;;;;;;;;;;;;10.52;nan;101847.22;5038820;28;20453;-31
2022/11/29 03:14:27;;;;;;;;;;;;;;;10.54;nan;101853.19;5077079;28;19924;-31
2022/11/29 03:17:08;;;;;;;;;;;;;;;10.52;nan;101859.81;5076008;28;19920;-31
2022/11/29 03:19:49;;;;;;;;;;;;;;;10.47;nan;101862.34;5079489;28;19916;-31
2022/11/29 03:22:27;;;;;;;;;;;;;;;10.44;nan;101868.97;5077608;28;19920;-31
2022/11/29 03:25:22;;;;;;;;;;;;;;;10.48;nan;101862.13;5076298;28;19916;-31
2022/11/29 03:27:55;;;;;;;;;;;;;;;10.54;nan;101866.59;5055472;28;20289;-31
2022/11/29 03:30:20;;;;;;;;;;;;;;;10.57;nan;101863.47;5073783;28;19973;-31
2022/11/29 03:32:58;;;;;;;;;;;;;;;10.58;nan;101865.09;5078500;28;19920;-31
2022/11/29 03:35:32;;;;;;;;;;;;;;;10.57;nan;101866.16;5081037;28;19965;-31
2022/11/29 03:38:03;;;;;;;;;;;;;;;10.54;nan;101866.59;5077879;28;19916;-31
2022/11/29 03:40:37;;;;;;;;;;;;;;;10.54;nan;101871.13;5078622;28;19924;-31
2022/11/29 03:43:05;;;;;;;;;;;;;;;10.55;nan;101870.91;5077684;28;20383;-31
2022/11/29 03:45:30;;;;;;;;;;;;;;;10.54;nan;101861.22;5079932;28;19930;-31
2022/11/29 03:48:04;;;;;;;;;;;;;;;10.57;nan;101873.38;5078014;28;19920;-31
2022/11/29 03:50:51;;;;;;;;;;;;;;;10.53;nan;101873.00;5079977;28;19921;-31
2022/11/29 03:53:22;;;;;;;;;;;;;;;10.48;nan;101877.38;5080869;28;20004;-31
2022/11/29 03:55:57;;;;;;;;;;;;;;;10.47;nan;101881.09;5078831;28;19916;-31
2022/11/29 03:58:29;;;;;;;;;;;;;;;10.45;nan;101878.66;5079379;28;19924;-31
2022/11/29 04:00:54;;;;;;;;;;;;;;;10.41;nan;101880.13;5077785;28;19916;-31
2022/11/29 04:03:19;;;;;;;;;;;;;;;10.42;nan;101881.75;5076628;28;19946;-31
2022/11/29 04:05:51;;;;;;;;;;;;;;;10.45;nan;101875.97;5075320;28;19916;-31
2022/11/29 04:08:16;;;;;;;;;;;;;;;10.46;nan;101876.78;5077816;28;20366;-31
2022/11/29 04:11:04;;;;;;;;;;;;;;;10.43;nan;101891.44;5079406;28;19920;-31
2022/11/29 04:13:39;;;;;;;;;;;;;;;10.45;nan;101893.91;5073909;28;19970;-31
2022/11/29 04:16:10;;;;;;;;;;;;;;;10.47;nan;101895.31;5075687;28;19916;-31
2022/11/29 04:18:36;;;;;;;;;;;;;;;10.44;nan;101901.13;5075995;28;19916;-31
2022/11/29 04:21:01;;;;;;;;;;;;;;;10.41;nan;101896.19;5078130;28;19931;-31
2022/11/29 04:23:32;;;;;;;;;;;;;;;10.40;nan;101901.75;5077216;28;20265;-31
2022/11/29 04:26:07;;;;;;;;;;;;;;;10.42;nan;101892.47;5077755;28;19964;-31
2022/11/29 04:28:51;;;;;;;;;;;;;;;10.44;nan;101898.44;5074008;28;20003;-31
2022/11/29 04:31:32;;;;;;;;;;;;;;;10.45;nan;101899.25;5079463;28;19920;-31
2022/11/29 04:34:00;;;;;;;;;;;;;;;10.44;nan;101905.66;5072533;28;20011;-31
2022/11/29 04:36:46;;;;;;;;;;;;;;;10.44;nan;101900.31;5078370;28;19916;-31
2022/11/29 04:39:17;;;;;;;;;;;;;;;10.44;nan;101905.66;5058368;28;19924;-31
2022/11/29 04:41:54;;;;;;;;;;;;;;;10.42;nan;101888.97;5080281;28;19916;-31
2022/11/29 04:44:36;;;;;;;;;;;;;;;10.38;nan;101899.28;5078154;28;20386;-31
2022/11/29 04:47:20;;;;;;;;;;;;;;;10.41;nan;101906.06;5077291;28;20044;-31
2022/11/29 04:50:00;;;;;;;;;;;;;;;10.43;nan;101918.25;5079248;28;19923;-31
2022/11/29 04:52:25;;;;;;;;;;;;;;;10.42;nan;101908.56;5076038;28;19939;-31
2022/11/29 04:54:59;;;;;;;;;;;;;;;10.42;nan;101911.25;5077095;28;20364;-31
2022/11/29 04:57:24;;;;;;;;;;;;;;;10.44;nan;101909.16;5077763;28;20288;-31
2022/11/29 04:59:54;;;;;;;;;;;;;;;10.42;nan;101910.41;5075047;28;19928;-31
2022/11/29 05:02:29;;;;;;;;;;;;;;;10.46;nan;101914.28;5074575;28;19939;-31
2022/11/29 05:04:54;;;;;;;;;;;;;;;10.44;nan;101906.47;5076488;28;19917;-31
2022/11/29 05:07:36;;;;;;;;;;;;;;;10.47;nan;101922.13;5077475;28;19958;-31
2022/11/29 05:10:01;;;;;;;;;;;;;;;10.44;nan;101919.88;5076215;28;19976;-31
2022/11/29 05:12:26;;;;;;;;;;;;;;;10.42;nan;101924.63;5075731;28;19958;-32
2022/11/29 05:15:00;;;;;;;;;;;;;;;10.39;nan;101933.09;5077067;28;19923;-32
2022/11/29 05:17:32;;;;;;;;;;;;;;;10.39;nan;101932.25;5077977;28;19920;-31
2022/11/29 05:20:09;;;;;;;;;;;;;;;10.37;nan;101935.16;5077171;28;19917;-31
2022/11/29 05:22:53;;;;;;;;;;;;;;;10.35;nan;101928.38;5075066;28;19917;-31
2022/11/29 05:25:27;;;;;;;;;;;;;;;10.34;nan;101935.59;5076163;28;19977;-31
2022/11/29 05:28:00;;;;;;;;;;;;;;;10.35;nan;101942.59;5075657;28;19928;-31
2022/11/29 05:30:31;;;;;;;;;;;;;;;10.37;nan;101940.53;5075690;28;19916;-31
2022/11/29 05:33:03;;;;;;;;;;;;;;;10.40;nan;101945.44;5076360;28;19925;-31
2022/11/29 05:35:39;;;;;;;;;;;;;;;10.34;nan;101938.28;5077766;28;19940;-31
2022/11/29 05:38:19;;;;;;;;;;;;;;;10.25;nan;101943.09;5077257;28;19962;-31
2022/11/29 05:41:00;;;;;;;;;;;;;;;10.22;nan;101948.88;5079578;28;20387;-31
2022/11/29 05:43:28;;;;;;;;;;;;;;;10.23;nan;101950.53;5076518;28;20008;-31
2022/11/29 05:45:56;;;;;;;;;;;;;;;10.23;nan;101960.41;5073384;28;19916;-31
2022/11/29 05:48:30;;;;;;;;;;;;;;;10.28;nan;101953.38;5078033;28;19934;-31
2022/11/29 05:51:11;;;;;;;;;;;;;;;10.34;nan;101967.75;5077921;28;19943;-31
2022/11/29 05:53:48;;;;;;;;;;;;;;;10.32;nan;101969.81;5075903;28;20368;-31
2022/11/29 05:56:22;;;;;;;;;;;;;;;10.35;nan;101972.06;5074011;28;20084;-31
2022/11/29 05:58:55;;;;;;;;;;;;;;;10.36;nan;101971.03;5074799;28;20012;-31
2022/11/29 06:01:25;;;;;;;;;;;;;;;10.33;nan;101973.31;5074249;28;19924;-31
2022/11/29 06:04:09;;;;;;;;;;;;;;;10.37;nan;101975.34;5076097;28;19924;-31
2022/11/29 06:06:42;;;;;;;;;;;;;;;10.40;nan;101977.59;5075622;28;19948;-31
2022/11/29 06:09:17;;;;;;;;;;;;;;;10.43;nan;101979.03;5076613;28;20019;-31
2022/11/29 06:11:43;;;;;;;;;;;;;;;10.42;nan;101980.09;5078481;28;19916;-31
2022/11/29 06:14:15;;;;;;;;;;;;;;;10.41;nan;101987.28;5078621;28;19921;-31
2022/11/29 06:16:41;;;;;;;;;;;;;;;10.39;nan;101989.34;5078733;28;19965;-31
2022/11/29 06:19:23;;;;;;;;;;;;;;;10.39;nan;101984.00;5073828;28;20005;-31
2022/11/29 06:21:58;;;;;;;;;;;;;;;10.34;nan;101989.19;5078322;28;20272;-31
2022/11/29 06:24:44;;;;;;;;;;;;;;;10.35;nan;101985.47;5078353;28;19916;-32
2022/11/29 06:27:09;;;;;;;;;;;;;;;10.37;nan;101994.09;5074916;28;20414;-31
2022/11/29 06:29:35;;;;;;;;;;;;;;;10.41;nan;101997.16;5069962;28;19916;-31
2022/11/29 06:32:19;;;;;;;;;;;;;;;10.41;nan;102000.69;5075020;28;19942;-31
2022/11/29 06:34:44;;;;;;;;;;;;;;;10.42;nan;101999.66;5075994;28;20444;-31
2022/11/29 06:37:22;;;;;;;;;;;;;;;10.43;nan;102001.28;5073613;28;19956;-31
2022/11/29 06:39:47;;;;;;;;;;;;;;;10.45;nan;102004.56;5075844;28;19916;-31
2022/11/29 06:42:13;;;;;;;;;;;;;;;10.47;nan;102010.53;5080355;28;19920;-31
2022/11/29 06:44:39;;;;;;;;;;;;;;;10.47;nan;102005.19;5074168;28;19922;-31
2022/11/29 06:47:05;;;;;;;;;;;;;;;10.45;nan;102015.28;5074081;28;19916;-31
2022/11/29 06:49:48;;;;;;;;;;;;;;;10.40;nan;102009.75;5078173;28;19920;-31
2022/11/29 06:52:13;;;;;;;;;;;;;;;10.36;nan;102015.75;5077842;28;19920;-31
2022/11/29 06:54:54;;;;;;;;;;;;;;;10.34;nan;102013.28;5077610;28;19985;-31
2022/11/29 06:57:36;;;;;;;;;;;;;;;10.35;nan;102020.28;5074379;28;19988;-31
2022/11/29 07:00:02;;;;;;;;;;;;;;;10.38;nan;102019.03;5075568;28;19916;-31
2022/11/29 07:02:43;;;;;;;;;;;;;;;10.42;nan;102018.41;5073766;28;19966;-31
2022/11/29 07:05:20;;;;;;;;;;;;;;;10.44;nan;102021.69;5072776;28;20060;-31
2022/11/29 07:07:47;;;;;;;;;;;;;;;10.47;nan;102023.13;5081227;28;19916;-31
2022/11/29 07:10:13;;;;;;;;;;;;;;;10.49;nan;102021.03;5073946;28;19920;-31
2022/11/29 07:12:39;;;;;;;;;;;;;;;10.49;nan;102021.84;5076552;28;19980;-32
2022/11/29 07:15:04;;;;;;;;;;;;;;;10.49;nan;102029.06;5078172;28;19959;-32
2022/11/29 07:17:38;;;;;;;;;;;;;;;10.51;nan;102030.50;5072443;28;20345;-31
2022/11/29 07:20:22;;;;;;;;;;;;;;;10.48;nan;102033.63;5070862;28;20405;-31
2022/11/29 07:22:47;;;;;;;;;;;;;;;10.43;nan;102030.78;5074733;28;19916;-31
2022/11/29 07:25:19;;;;;;;;;;;;;;;10.37;nan;102038.81;5077741;28;19920;-31
2022/11/29 07:27:57;;;;;;;;;;;;;;;10.42;nan;102039.03;5071811;28;19917;-31
2022/11/29 07:30:22;;;;;;;;;;;;;;;10.42;nan;102044.38;5075617;28;19920;-31
2022/11/29 07:33:03;;;;;;;;;;;;;;;10.42;nan;102037.16;5080519;28;19920;-31
2022/11/29 07:35:37;;;;;;;;;;;;;;;10.37;nan;102042.31;5080115;28;19939;-31
2022/11/29 07:38:27;;;;;;;;;;;;;;;10.39;nan;102045.59;5073997;28;19917;-31
2022/11/29 07:40:55;;;;;;;;;;;;;;;10.37;nan;102047.69;5070269;28;19994;-31
2022/11/29 07:43:30;;;;;;;;;;;;;;;10.43;nan;102048.72;5071207;28;19919;-31
2022/11/29 07:45:56;;;;;;;;;;;;;;;10.40;nan;102047.25;5072070;28;20212;-31
2022/11/29 07:48:21;;;;;;;;;;;;;;;10.44;nan;102053.03;5078331;28;19920;-31
2022/11/29 07:50:47;;;;;;;;;;;;;;;10.45;nan;102047.44;5070529;28;20256;-31
2022/11/29 07:53:16;;;;;;;;;;;;;;;10.52;nan;102050.91;5069971;28;19928;-31
2022/11/29 07:55:41;;;;;;;;;;;;;;;10.56;nan;102052.09;5070800;28;19916;-31
2022/11/29 07:58:09;;;;;;;;;;;;;;;10.59;nan;102062.41;5077711;28;19916;-31
2022/11/29 08:00:35;;;;;;;;;;;;;;;10.62;nan;102061.16;5069592;28;20406;-31
2022/11/29 08:03:00;;;;;;;;;;;;;;;10.59;nan;102062.41;5072256;28;19969;-31
2022/11/29 08:05:26;;;;;;;;;;;;;;;10.61;nan;102062.19;5074517;28;19921;-31
2022/11/29 08:07:52;;;;;;;;;;;;;;;10.64;nan;102060.94;5071920;28;19916;-31
2022/11/29 08:10:17;;;;;;;;;;;;;;;10.69;nan;102066.47;5074232;28;19921;-31
2022/11/29 08:12:48;;;;;;;;;;;;;;;10.70;nan;102068.91;5073399;28;19917;-32
2022/11/29 08:15:14;;;;;;;;;;;;;;;10.74;nan;102070.13;5074797;28;19920;-31
2022/11/29 08:17:39;;;;;;;;;;;;;;;10.74;nan;102074.66;5073285;28;19923;-31
2022/11/29 08:20:06;;;;;;;;;;;;;;;10.73;nan;102073.03;5074393;28;20431;-31
2022/11/29 08:22:31;;;;;;;;;;;;;;;10.72;nan;102072.19;5072895;28;19924;-31
2022/11/29 08:24:57;;;;;;;;;;;;;;;10.73;nan;102075.72;5073515;28;19916;-31
2022/11/29 08:27:22;;;;;;;;;;;;;;;10.76;nan;102077.94;5072729;28;19927;-31
2022/11/29 08:29:48;;;;;;;;;;;;;;;10.80;nan;102081.88;5073510;28;19917;-31
2022/11/29 08:32:13;;;;;;;;;;;;;;;10.80;nan;102076.50;5073848;28;19920;-31
2022/11/29 08:34:38;;;;;;;;;;;;;;;10.81;nan;102081.63;5073262;28;19921;-31
2022/11/29 08:37:04;;;;;;;;;;;;;;;10.79;nan;102077.53;5073393;28;20372;-31
2022/11/29 08:39:29;;;;;;;;;;;;;;;10.79;nan;102080.22;5073706;28;20394;-31
2022/11/29 08:41:54;;;;;;;;;;;;;;;10.78;nan;102076.72;5073386;28;20360;-31
2022/11/29 08:44:20;;;;;;;;;;;;;;;10.83;nan;102078.75;5073873;28;20151;-31
2022/11/29 08:49:29;;;;;;;;;;;;;;;10.81;nan;102080.81;5073507;28;20322;-31
2022/11/29 08:53:40;;;;;;;;;;;;;;;10.84;nan;102085.75;5072420;28;19921;-31
2022/11/29 08:54:40;;;;;;;;;;;;;;;10.88;nan;102084.25;5072656;28;19921;-31
2022/11/29 08:57:05;;;;;;;;;;;;;;;10.90;nan;102084.88;5073402;28;19951;-31
2022/11/29 08:59:30;;;;;;;;;;;;;;;10.85;nan;102084.72;5072736;28;19959;-31
2022/11/29 09:01:56;;;;;;;;;;;;;;;10.86;nan;102083.66;5072206;28;19946;-31
2022/11/29 09:04:21;;;;;;;;;;;;;;;10.88;nan;102086.94;5072556;28;19927;-31
2022/11/29 09:06:48;;;;;;;;;;;;;;;10.90;nan;102088.38;5071594;28;19916;-31
2022/11/29 09:09:14;;;;;;;;;;;;;;;10.87;nan;102096.84;5072359;28;19973;-31
2022/11/29 09:11:39;;;;;;;;;;;;;;;10.91;nan;102091.88;5072561;28;19924;-31
2022/11/29 09:14:05;;;;;;;;;;;;;;;10.97;nan;102093.69;5072948;28;19920;-31
2022/11/29 09:16:33;;;;;;;;;;;;;;;10.98;nan;102098.03;5072092;28;19921;-31
2022/11/29 09:18:58;;;;;;;;;;;;;;;10.88;nan;102092.31;5071853;28;19916;-31
2022/11/29 09:21:25;;;;;;;;;;;;;;;10.89;nan;102092.09;5072941;28;20268;-31
2022/11/29 09:24:00;;;;;;;;;;;;;;;10.88;nan;102089.63;5072527;28;19990;-31
2022/11/29 09:26:26;;;;;;;;;;;;;;;10.93;nan;102099.69;5078228;28;19916;-31
2022/11/29 09:28:52;;;;;;;;;;;;;;;10.96;nan;102094.75;5071690;28;20393;-31
2022/11/29 09:31:18;;;;;;;;;;;;;;;10.98;nan;102097.22;5072900;28;19920;-31
2022/11/29 09:33:44;;;;;;;;;;;;;;;11.05;nan;102101.47;5072234;28;19929;-31
2022/11/29 09:36:11;;;;;;;;;;;;;;;11.11;nan;102103.25;5072491;28;19930;-31
2022/11/29 09:38:36;;;;;;;;;;;;;;;11.08;nan;102103.72;5071558;28;20433;-31
2022/11/29 09:41:04;;;;;;;;;;;;;;;11.11;nan;102108.63;5071595;28;19916;-31
2022/11/29 09:43:29;;;;;;;;;;;;;;;11.16;nan;102110.69;5077680;28;19923;-31
2022/11/29 09:46:00;;;;;;;;;;;;;;;11.19;nan;102111.06;5072160;28;19916;-31
2022/11/29 09:48:53;;;;;;;;;;;;;;;11.19;nan;102121.78;5077359;28;19916;-31
2022/11/29 09:51:29;;;;;;;;;;;;;;;11.18;nan;102116.66;5072595;28;19920;-31
2022/11/29 09:54:13;;;;;;;;;;;;;;;11.22;nan;102115.16;5070629;28;19977;-31
2022/11/29 09:56:47;;;;;;;;;;;;;;;11.23;nan;102110.63;5053490;28;19987;-31
2022/11/29 09:59:17;;;;;;;;;;;;;;;11.28;nan;102118.81;5071309;28;20344;-31
2022/11/29 10:01:50;;;;;;;;;;;;;;;11.29;nan;102115.09;5070886;28;19916;-31
2022/11/29 10:04:21;;;;;;;;;;;;;;;11.30;nan;102124.78;5072573;28;19951;-31
2022/11/29 10:07:12;;;;;;;;;;;;;;;11.27;nan;102117.19;5070946;28;19944;-31
2022/11/29 10:09:52;;;;;;;;;;;;;;;11.22;nan;102122.38;5069984;28;19916;-31
2022/11/29 10:12:36;;;;;;;;;;;;;;;11.25;nan;102121.94;5071542;28;20343;-31
2022/11/29 10:15:20;;;;;;;;;;;;;;;11.23;nan;102118.66;5071436;28;20066;-31
2022/11/29 10:17:54;;;;;;;;;;;;;;;11.21;nan;102124.25;5070445;28;19916;-31
2022/11/29 10:20:23;;;;;;;;;;;;;;;11.21;nan;102121.56;5072018;28;19943;-31
2022/11/29 10:22:54;;;;;;;;;;;;;;;11.22;nan;102123.22;5071331;28;20473;-31
2022/11/29 10:25:24;;;;;;;;;;;;;;;11.18;nan;102120.16;5071633;28;21242;-31
2022/11/29 10:27:50;;;;;;;;;;;;;;;11.22;nan;102117.03;5070858;28;20050;-31
2022/11/29 10:30:16;;;;;;;;;;;;;;;11.21;nan;102116.19;5070777;28;20003;-31
2022/11/29 10:32:43;;;;;;;;;;;;;;;11.20;nan;102123.44;5070330;28;19916;-31
2022/11/29 10:35:16;;;;;;;;;;;;;;;11.19;nan;102124.47;5072201;28;19916;-32
2022/11/29 10:37:41;;;;;;;;;;;;;;;11.17;nan;102121.19;5069713;28;19928;-31
2022/11/29 10:40:27;;;;;;;;;;;;;;;11.16;nan;102127.59;5072409;28;19913;-31
2022/11/29 10:42:53;;;;;;;;;;;;;;;11.23;nan;102124.84;5070481;28;20418;-32
2022/11/29 10:45:18;;;;;;;;;;;;;;;11.30;nan;102122.94;5071323;28;20015;-31
2022/11/29 10:47:45;;;;;;;;;;;;;;;11.36;nan;102127.44;5070401;28;19965;-31
2022/11/29 10:50:18;;;;;;;;;;;;;;;11.39;nan;102127.00;5071933;28;19931;-31
2022/11/29 10:52:44;;;;;;;;;;;;;;;11.35;nan;102128.47;5070994;28;19924;-31
2022/11/29 10:55:12;;;;;;;;;;;;;;;11.35;nan;102130.34;5071413;28;20444;-31
2022/11/29 10:57:57;;;;;;;;;;;;;;;11.40;nan;102127.81;5070197;28;20003;-31
2022/11/29 11:00:23;;;;;;;;;;;;;;;11.42;nan;102131.91;5070094;28;20488;-32
2022/11/29 11:02:48;;;;;;;;;;;;;;;11.42;nan;102126.53;5070478;28;19912;-31
2022/11/29 11:05:18;;;;;;;;;;;;;;;11.43;nan;102132.72;5070999;28;20434;-31
2022/11/29 11:07:44;;;;;;;;;;;;;;;11.44;nan;102118.28;5074463;28;20684;-32
2022/11/29 11:10:25;;;;;;;;;;;;;;;11.42;nan;102113.13;5071159;28;19919;-31
2022/11/29 11:13:05;;;;;;;;;;;;;;;11.43;nan;102124.69;5069881;28;19954;-32
2022/11/29 11:15:31;;;;;;;;;;;;;;;11.44;nan;102123.63;5075967;28;19967;-32
2022/11/29 11:18:03;;;;;;;;;;;;;;;11.45;nan;102117.22;5075336;28;19924;-31
2022/11/29 11:20:30;;;;;;;;;;;;;;;11.50;nan;102117.41;5077067;28;19916;-31
2022/11/29 11:22:57;;;;;;;;;;;;;;;11.50;nan;102114.72;5070562;28;20304;-31
2022/11/29 11:25:38;;;;;;;;;;;;;;;11.54;nan;102123.97;5071032;28;19920;-32
2022/11/29 11:28:19;;;;;;;;;;;;;;;11.58;nan;102110.91;5069954;28;19971;-31
2022/11/29 11:30:53;;;;;;;;;;;;;;;11.58;nan;102118.97;5069708;28;19923;-31
2022/11/29 11:33:22;;;;;;;;;;;;;;;11.60;nan;102123.06;5076973;28;19931;-31
2022/11/29 11:36:05;;;;;;;;;;;;;;;11.55;nan;102111.38;5081937;28;20287;-31
2022/11/29 11:38:31;;;;;;;;;;;;;;;11.52;nan;102120.69;5076170;28;19920;-31
2022/11/29 11:41:01;;;;;;;;;;;;;;;11.54;nan;102123.16;5070012;28;19917;-31
2022/11/29 11:43:27;;;;;;;;;;;;;;;11.56;nan;102119.19;5080263;28;20011;-31
2022/11/29 11:45:54;;;;;;;;;;;;;;;11.55;nan;102128.31;5074765;28;19926;-31
2022/11/29 11:48:20;;;;;;;;;;;;;;;11.59;nan;102123.31;5072487;28;20389;-31
2022/11/29 11:50:50;;;;;;;;;;;;;;;11.60;nan;102119.56;5074944;28;19947;-31
2022/11/29 11:53:19;;;;;;;;;;;;;;;11.59;nan;102120.63;5072472;28;20091;-31
2022/11/29 11:55:53;;;;;;;;;;;;;;;11.63;nan;102128.00;5077476;28;19920;-31
2022/11/29 11:58:22;;;;;;;;;;;;;;;11.58;nan;102127.03;5075725;28;20220;-31
2022/11/29 12:00:47;;;;;;;;;;;;;;;11.62;nan;102125.53;5073938;28;20030;-32
2022/11/29 12:03:28;;;;;;;;;;;;;;;11.59;nan;102131.34;5072958;28;20170;-31
2022/11/29 12:05:55;;;;;;;;;;;;;;;11.59;nan;102134.84;5071609;28;20003;-31
2022/11/29 12:08:22;;;;;;;;;;;;;;;11.59;nan;102134.84;5073434;28;19924;-31
2022/11/29 12:10:51;;;;;;;;;;;;;;;11.60;nan;102133.81;5072201;28;20007;-32
2022/11/29 12:13:19;;;;;;;;;;;;;;;11.67;nan;102137.28;5078845;28;19930;-32
2022/11/29 12:15:46;;;;;;;;;;;;;;;11.65;nan;102144.69;5073272;28;20010;-32
2022/11/29 12:18:15;;;;;;;;;;;;;;;11.66;nan;102143.66;5073091;28;19930;-32
2022/11/29 12:20:53;;;;;;;;;;;;;;;11.66;nan;102140.16;5073027;28;19916;-33
2022/11/29 12:23:23;;;;;;;;;;;;;;;11.69;nan;102147.78;5075511;28;19923;-32
2022/11/29 12:26:01;;;;;;;;;;;;;;;11.71;nan;102141.16;5076634;28;19948;-32
2022/11/29 12:28:34;;;;;;;;;;;;;;;11.78;nan;102141.94;5076115;28;20401;-33
2022/11/29 12:31:18;;;;;;;;;;;;;;;11.84;nan;102144.75;5074443;28;19920;-33
2022/11/29 12:33:49;;;;;;;;;;;;;;;11.86;nan;102148.06;5075214;28;19959;-32
2022/11/29 12:36:26;;;;;;;;;;;;;;;11.86;nan;102143.53;5074410;28;19927;-32
2022/11/29 12:39:06;;;;;;;;;;;;;;;11.84;nan;102144.75;5074315;28;20022;-33
2022/11/29 12:41:35;;;;;;;;;;;;;;;11.82;nan;102147.66;5075907;28;19921;-33
2022/11/29 12:44:15;;;;;;;;;;;;;;;11.87;nan;102149.72;5076623;28;19991;-33
2022/11/29 12:46:43;;;;;;;;;;;;;;;11.88;nan;102144.13;5073515;28;19921;-32
2022/11/29 12:49:40;;;;;;;;;;;;;;;11.78;nan;102147.31;5074262;28;19916;-32
2022/11/29 12:52:05;;;;;;;;;;;;;;;11.74;nan;102151.44;5059625;28;20422;-32
2022/11/29 12:54:42;;;;;;;;;;;;;;;11.78;nan;102154.50;5074405;28;19924;-33
2022/11/29 12:57:08;;;;;;;;;;;;;;;11.84;nan;102152.81;5073016;28;19917;-32
2022/11/29 12:59:51;;;;;;;;;;;;;;;11.89;nan;102158.38;5074799;28;20015;-32
2022/11/29 13:02:23;;;;;;;;;;;;;;;11.95;nan;102165.53;5074556;28;20042;-32
2022/11/29 13:05:08;;;;;;;;;;;;;;;11.97;nan;102166.13;5075361;28;19916;-33
2022/11/29 13:07:36;;;;;;;;;;;;;;;11.97;nan;102177.69;5072099;28;19921;-32
2022/11/29 13:10:01;;;;;;;;;;;;;;;12.01;nan;102172.69;5076777;28;19916;-32
2022/11/29 13:12:33;;;;;;;;;;;;;;;12.02;nan;102177.81;5073671;28;20295;-32
2022/11/29 13:14:59;;;;;;;;;;;;;;;12.02;nan;102177.00;5078540;28;19920;-32
2022/11/29 13:17:24;;;;;;;;;;;;;;;12.04;nan;102172.25;5074529;28;20371;-33
2022/11/29 13:19:54;;;;;;;;;;;;;;;12.00;nan;102165.66;5075754;28;19947;-32